Time;durP1;ratioP1;P1;durP2;ratioP2;P2;SDS_P1;SDS_P2;PMS_P1;PMS_P2;Temp;Humidity;BMP_temperature;BMP_pressure;BME280_temperature;BME280_humidity;BME280_pressure;Samples;Min_cycle;Max_cycle;Signal;HPM_P1;HPM_P2
2020/12/13 00:00:13;;;;;;;20.13;14.00;;;9.10;99.90;;;;;;4898981;29;20301;-82
2020/12/13 00:02:39;;;;;;;23.00;15.90;;;9.10;99.90;;;;;;4898434;29;20221;-82
2020/12/13 00:05:06;;;;;;;22.30;16.63;;;9.00;99.90;;;;;;4899076;29;20205;-83
2020/12/13 00:07:32;;;;;;;25.67;17.43;;;9.00;99.90;;;;;;4899234;29;20222;-82
2020/12/13 00:09:58;;;;;;;20.50;16.57;;;9.00;99.90;;;;;;4898482;29;20646;-84
2020/12/13 00:12:23;;;;;;;23.50;17.00;;;9.10;99.90;;;;;;4897900;29;20186;-82
2020/12/13 00:14:49;;;;;;;24.80;16.70;;;8.90;99.90;;;;;;4897948;29;20210;-82
2020/12/13 00:17:16;;;;;;;22.87;16.83;;;9.00;99.90;;;;;;4897685;29;20643;-83
2020/12/13 00:19:42;;;;;;;22.33;15.83;;;8.80;99.90;;;;;;4898860;29;20261;-82
2020/12/13 00:22:07;;;;;;;20.30;14.47;;;8.90;99.90;;;;;;4897592;29;20225;-83
2020/12/13 00:24:36;;;;;;;21.90;14.17;;;8.80;99.90;;;;;;4897639;29;20745;-82
2020/12/13 00:27:02;;;;;;;15.80;12.33;;;8.80;99.90;;;;;;4897218;29;20218;-81
2020/12/13 00:29:28;;;;;;;19.83;13.27;;;8.80;99.90;;;;;;4898721;29;20611;-82
2020/12/13 00:31:55;;;;;;;19.67;11.63;;;8.90;99.90;;;;;;4897148;29;20221;-82
2020/12/13 00:34:20;;;;;;;18.87;11.03;;;8.80;99.90;;;;;;4898604;29;20210;-82
2020/12/13 00:36:52;;;;;;;21.37;11.50;;;8.80;99.90;;;;;;4897456;29;20186;-82
2020/12/13 00:39:18;;;;;;;23.07;10.70;;;8.90;99.90;;;;;;4898308;29;20194;-82
2020/12/13 00:41:53;;;;;;;20.87;10.33;;;8.90;99.90;;;;;;4897485;29;20625;-80
2020/12/13 00:44:19;;;;;;;17.73;10.20;;;8.80;99.90;;;;;;4898325;29;20593;-82
2020/12/13 00:46:47;;;;;;;15.43;8.80;;;8.80;99.90;;;;;;4896914;29;20192;-82
2020/12/13 00:49:13;;;;;;;17.73;9.77;;;8.90;99.90;;;;;;4897060;29;20182;-82
2020/12/13 00:51:38;;;;;;;23.77;9.70;;;8.80;99.90;;;;;;4898976;29;20182;-81
2020/12/13 00:54:04;;;;;;;13.40;8.50;;;8.90;99.90;;;;;;4897146;29;20345;-82
2020/12/13 00:56:30;;;;;;;18.93;9.00;;;8.90;99.90;;;;;;4897189;29;20209;-83
2020/12/13 00:58:55;;;;;;;17.33;8.47;;;8.80;99.90;;;;;;4898135;29;20575;-82
2020/12/13 01:01:21;;;;;;;16.90;8.70;;;8.90;99.90;;;;;;4899726;29;20182;-82
2020/12/13 01:03:48;;;;;;;17.53;8.00;;;8.90;99.90;;;;;;4901241;29;20186;-82
2020/12/13 01:06:23;;;;;;;17.30;7.80;;;8.90;99.90;;;;;;4902264;29;20346;-82
2020/12/13 01:08:50;;;;;;;14.93;6.90;;;8.90;99.90;;;;;;4900890;29;20745;-82
2020/12/13 01:11:24;;;;;;;15.33;6.97;;;9.00;99.90;;;;;;4902276;29;20197;-80
2020/12/13 01:13:50;;;;;;;12.90;6.03;;;9.00;99.90;;;;;;4900495;29;20209;-81
2020/12/13 01:16:17;;;;;;;18.43;7.40;;;9.10;99.90;;;;;;4901862;29;20170;-81
2020/12/13 01:18:43;;;;;;;13.17;5.77;;;9.10;99.90;;;;;;4901854;29;20188;-83
2020/12/13 01:21:15;;;;;;;14.57;6.63;;;9.00;99.90;;;;;;4900536;29;20198;-84
2020/12/13 01:23:40;;;;;;;18.17;5.87;;;8.90;99.90;;;;;;4910013;29;20261;-88
2020/12/13 01:26:18;;;;;;;15.73;6.27;;;8.90;99.90;;;;;;4906175;29;20213;-86
2020/12/13 01:28:45;;;;;;;12.87;5.83;;;8.90;99.90;;;;;;4910123;29;20647;-86
2020/12/13 01:31:16;;;;;;;13.37;5.77;;;9.00;99.90;;;;;;4908571;29;20209;-84
2020/12/13 01:33:43;;;;;;;11.47;5.30;;;8.90;99.90;;;;;;4910681;29;20208;-87
2020/12/13 01:36:14;;;;;;;12.53;5.50;;;9.00;99.90;;;;;;4908058;29;20243;-86
2020/12/13 01:38:40;;;;;;;14.20;5.67;;;9.10;99.90;;;;;;4910649;29;20174;-87
2020/12/13 01:41:06;;;;;;;13.40;5.80;;;9.00;99.90;;;;;;4908367;29;20167;-88
2020/12/13 01:43:33;;;;;;;13.67;5.23;;;9.10;99.90;;;;;;4909033;29;20175;-85
2020/12/13 01:45:59;;;;;;;14.30;5.53;;;9.10;99.90;;;;;;4908697;29;20201;-87
2020/12/13 01:48:27;;;;;;;13.67;5.37;;;9.10;99.90;;;;;;4904201;29;20643;-86
2020/12/13 01:53:36;;;;;;;10.90;4.83;;;9.20;99.90;;;;;;4903723;29;20193;-86
2020/12/13 01:56:03;;;;;;;10.43;4.97;;;9.10;99.90;;;;;;4903370;29;20218;-85
2020/12/13 01:58:39;;;;;;;14.77;5.10;;;9.00;99.90;;;;;;4903545;29;20185;-85
2020/12/13 02:01:06;;;;;;;8.73;4.57;;;9.10;99.90;;;;;;4904885;29;20178;-87
2020/12/13 02:03:45;;;;;;;11.47;5.03;;;9.10;99.90;;;;;;4902733;29;20210;-87
2020/12/13 02:06:22;;;;;;;11.50;5.00;;;9.10;99.90;;;;;;4904076;29;20257;-87
2020/12/13 02:08:50;;;;;;;12.90;4.60;;;9.10;99.90;;;;;;4902780;29;20170;-86
2020/12/13 02:11:17;;;;;;;9.87;4.63;;;9.10;99.90;;;;;;4902218;29;20170;-87
2020/12/13 02:13:42;;;;;;;13.90;4.57;;;9.10;99.90;;;;;;4901400;29;20181;-87
2020/12/13 02:16:08;;;;;;;10.07;4.30;;;9.00;99.90;;;;;;4902441;29;20706;-87
2020/12/13 02:18:35;;;;;;;10.07;4.73;;;9.10;99.90;;;;;;4904756;29;20273;-87
2020/12/13 02:21:02;;;;;;;14.20;4.80;;;9.00;99.90;;;;;;4905698;29;20190;-87
2020/12/13 02:23:29;;;;;;;11.97;4.53;;;8.90;99.90;;;;;;4909425;29;20234;-87
2020/12/13 02:25:55;;;;;;;9.47;3.97;;;8.90;99.90;;;;;;4915756;29;20590;-84
2020/12/13 02:28:21;;;;;;;16.70;5.07;;;8.80;99.90;;;;;;4918213;29;20170;-85
2020/12/13 02:30:47;;;;;;;8.67;4.07;;;8.90;99.90;;;;;;4903573;29;20195;-86
2020/12/13 02:33:13;;;;;;;10.57;4.37;;;8.90;99.90;;;;;;4902485;29;20599;-86
2020/12/13 02:35:39;;;;;;;7.47;4.13;;;8.90;99.90;;;;;;4902092;29;20217;-84
2020/12/13 02:38:06;;;;;;;11.00;4.33;;;9.00;99.90;;;;;;4902907;29;20205;-87
2020/12/13 02:40:32;;;;;;;8.63;3.80;;;9.00;99.90;;;;;;4903089;29;20195;-87
2020/12/13 02:42:57;;;;;;;9.03;4.23;;;9.00;99.90;;;;;;4902164;29;20263;-87
2020/12/13 02:45:23;;;;;;;12.20;4.67;;;9.00;99.90;;;;;;4902909;29;20193;-87
2020/12/13 02:47:49;;;;;;;8.73;4.00;;;9.00;99.90;;;;;;4903016;29;20279;-86
2020/12/13 02:50:14;;;;;;;11.17;4.17;;;9.00;99.90;;;;;;4903561;29;20182;-85
2020/12/13 02:52:40;;;;;;;11.80;4.87;;;9.00;99.90;;;;;;4902411;29;20170;-86
2020/12/13 02:55:05;;;;;;;11.53;3.80;;;9.00;99.90;;;;;;4902065;29;20342;-87
2020/12/13 02:57:31;;;;;;;9.10;4.00;;;9.10;99.90;;;;;;4900968;29;20178;-85
2020/12/13 02:59:57;;;;;;;13.50;5.13;;;9.20;99.90;;;;;;4901476;29;20178;-86
2020/12/13 03:02:22;;;;;;;14.27;4.37;;;9.10;99.90;;;;;;4901100;29;20170;-87
2020/12/13 03:04:48;;;;;;;9.63;4.27;;;9.10;99.90;;;;;;4900856;29;20639;-85
2020/12/13 03:07:13;;;;;;;8.87;4.47;;;9.10;99.90;;;;;;4902256;29;20590;-86
2020/12/13 03:09:39;;;;;;;10.93;4.70;;;9.10;99.90;;;;;;4902101;29;20182;-87
2020/12/13 03:12:05;;;;;;;10.50;4.53;;;9.10;99.90;;;;;;4902262;29;20174;-86
2020/12/13 03:14:33;;;;;;;11.30;4.93;;;9.10;99.90;;;;;;4900734;29;20222;-88
2020/12/13 03:16:58;;;;;;;14.80;5.30;;;9.00;99.90;;;;;;4900492;29;20209;-86
2020/12/13 03:19:24;;;;;;;11.57;4.67;;;9.00;99.90;;;;;;4901054;29;20182;-86
2020/12/13 03:21:50;;;;;;;13.40;4.67;;;8.90;99.90;;;;;;4901119;29;20232;-86
2020/12/13 03:24:16;;;;;;;10.77;4.70;;;8.90;99.90;;;;;;4905512;29;20186;-86
2020/12/13 03:26:42;;;;;;;10.07;4.77;;;8.80;99.90;;;;;;4909486;29;20189;-85
2020/12/13 03:29:08;;;;;;;11.40;4.80;;;8.80;99.90;;;;;;4912639;29;20218;-88
2020/12/13 03:31:34;;;;;;;11.57;4.80;;;8.90;99.90;;;;;;4906927;29;20194;-86
2020/12/13 03:34:01;;;;;;;12.13;4.93;;;8.80;99.90;;;;;;4923136;29;20202;-85
2020/12/13 03:36:27;;;;;;;14.57;5.80;;;8.70;99.90;;;;;;4923023;29;20186;-84
2020/12/13 03:38:53;;;;;;;9.03;4.57;;;8.80;99.90;;;;;;4915410;29;20173;-86
2020/12/13 03:41:19;;;;;;;10.50;4.60;;;8.80;99.90;;;;;;4907216;29;20189;-86
2020/12/13 03:43:47;;;;;;;13.33;5.00;;;8.80;99.90;;;;;;4899178;29;20555;-84
2020/12/13 03:46:13;;;;;;;10.57;4.47;;;8.90;99.90;;;;;;4898095;29;20190;-83
2020/12/13 03:48:38;;;;;;;9.70;3.80;;;8.90;99.90;;;;;;4898131;29;20174;-81
2020/12/13 03:51:04;;;;;;;9.80;4.77;;;8.90;99.90;;;;;;4898676;29;20646;-81
2020/12/13 03:53:29;;;;;;;8.40;4.40;;;8.90;99.90;;;;;;4883442;29;20225;-84
2020/12/13 03:55:55;;;;;;;9.17;4.03;;;8.80;99.90;;;;;;4899156;29;20646;-87
2020/12/13 03:58:21;;;;;;;11.77;4.10;;;8.70;99.90;;;;;;4901033;29;20720;-85
2020/12/13 04:00:46;;;;;;;10.17;5.27;;;8.80;99.90;;;;;;4901458;29;20197;-84
2020/12/13 04:03:12;;;;;;;10.10;4.27;;;8.80;99.90;;;;;;4900676;29;20257;-82
2020/12/13 04:05:39;;;;;;;8.43;4.07;;;8.60;99.90;;;;;;4898871;29;20170;-83
2020/12/13 04:08:04;;;;;;;10.27;4.60;;;8.60;99.90;;;;;;4899645;29;20198;-81
2020/12/13 04:10:32;;;;;;;10.93;4.87;;;8.60;99.90;;;;;;4900608;29;20174;-86
2020/12/13 04:12:57;;;;;;;11.00;4.77;;;8.60;99.90;;;;;;4902440;29;20171;-85
2020/12/13 04:15:23;;;;;;;10.77;4.80;;;8.60;99.90;;;;;;4899743;29;20213;-81
2020/12/13 04:17:49;;;;;;;11.33;4.63;;;8.60;99.90;;;;;;4898325;29;20222;-80
2020/12/13 04:20:15;;;;;;;11.07;4.40;;;8.50;99.90;;;;;;4905029;29;20178;-83
2020/12/13 04:22:41;;;;;;;8.53;4.10;;;8.50;99.90;;;;;;4911369;29;20194;-80
2020/12/13 04:25:07;;;;;;;11.57;5.03;;;8.40;99.90;;;;;;4906355;29;20205;-81
2020/12/13 04:27:33;;;;;;;11.07;4.83;;;8.30;99.90;;;;;;4897309;29;20178;-80
2020/12/13 04:29:59;;;;;;;13.40;5.10;;;8.40;99.90;;;;;;4900325;29;20170;-82
2020/12/13 04:32:25;;;;;;;10.57;5.03;;;8.40;99.90;;;;;;4901676;29;20173;-85
2020/12/13 04:34:51;;;;;;;12.63;5.33;;;8.40;99.90;;;;;;4904901;29;20203;-81
2020/12/13 04:37:17;;;;;;;10.57;4.90;;;8.30;99.90;;;;;;4901296;29;20257;-81
2020/12/13 04:39:43;;;;;;;11.13;4.53;;;8.40;99.90;;;;;;4902349;29;20578;-83
2020/12/13 04:42:09;;;;;;;12.17;5.20;;;8.30;99.90;;;;;;4898658;29;20167;-80
2020/12/13 04:44:37;;;;;;;15.23;4.43;;;8.30;99.90;;;;;;4898578;29;20217;-87
2020/12/13 04:47:07;;;;;;;12.67;5.07;;;8.20;99.90;;;;;;4902584;29;20170;-87
2020/12/13 04:49:35;;;;;;;10.73;4.33;;;8.20;99.90;;;;;;4917774;29;20170;-83
2020/12/13 04:52:02;;;;;;;12.70;5.33;;;8.30;99.90;;;;;;4921454;29;20153;-81
2020/12/13 04:54:29;;;;;;;8.63;4.93;;;8.20;99.90;;;;;;4908985;29;20198;-82
2020/12/13 04:56:58;;;;;;;9.87;4.50;;;8.30;99.90;;;;;;4899916;29;20174;-81
2020/12/13 04:59:26;;;;;;;12.30;4.60;;;8.20;99.90;;;;;;4901668;29;20173;-87
2020/12/13 05:01:54;;;;;;;13.03;5.00;;;8.30;99.90;;;;;;4907887;29;20177;-87
2020/12/13 05:04:19;;;;;;;13.13;4.63;;;8.20;99.90;;;;;;4907629;29;20185;-87
2020/12/13 05:06:46;;;;;;;10.37;4.80;;;8.10;99.90;;;;;;4904099;29;20171;-88
2020/12/13 05:09:15;;;;;;;9.10;4.33;;;8.10;99.90;;;;;;4901747;29;20211;-81
2020/12/13 05:11:42;;;;;;;11.13;4.77;;;8.10;99.90;;;;;;4897381;29;20177;-81
2020/12/13 05:14:11;;;;;;;10.17;4.07;;;8.10;99.90;;;;;;4897205;29;20213;-87
2020/12/13 05:16:36;;;;;;;9.87;4.17;;;8.00;99.90;;;;;;4898605;29;20262;-86
2020/12/13 05:19:05;;;;;;;14.40;4.43;;;8.00;99.90;;;;;;4898547;29;20178;-86
2020/12/13 05:21:31;;;;;;;15.63;4.67;;;8.00;99.90;;;;;;4905964;29;20186;-86
2020/12/13 05:23:57;;;;;;;10.70;4.60;;;8.00;99.90;;;;;;4911126;29;20166;-81
2020/12/13 05:26:22;;;;;;;13.57;4.37;;;8.00;99.90;;;;;;4917506;29;20178;-79
2020/12/13 05:28:53;;;;;;;14.87;5.00;;;8.10;99.90;;;;;;4897519;29;20190;-81
2020/12/13 05:31:23;;;;;;;13.33;4.30;;;8.00;99.90;;;;;;4899465;29;20170;-87
2020/12/13 05:33:52;;;;;;;10.70;4.53;;;8.00;99.90;;;;;;4899512;29;20643;-86
2020/12/13 05:36:18;;;;;;;12.70;4.70;;;8.20;99.90;;;;;;4897915;29;20226;-81
2020/12/13 05:38:46;;;;;;;8.93;3.93;;;8.00;99.90;;;;;;4881374;29;20212;-82
2020/12/13 05:41:14;;;;;;;11.17;4.20;;;8.00;99.90;;;;;;4897104;29;20262;-82
2020/12/13 05:46:57;;;;;;;11.37;4.00;;;8.00;99.90;;;;;;4896746;29;20212;-84
2020/12/13 05:49:52;;;;;;;8.97;4.53;;;8.10;99.90;;;;;;4899846;29;20186;-86
2020/12/13 05:52:18;;;;;;;10.70;3.63;;;8.10;99.90;;;;;;4901851;29;20200;-87
2020/12/13 05:54:46;;;;;;;9.80;3.97;;;8.10;99.90;;;;;;4900911;29;20218;-80
2020/12/13 05:57:13;;;;;;;10.10;3.80;;;8.10;99.90;;;;;;4900651;29;20201;-81
2020/12/13 05:59:39;;;;;;;13.37;4.07;;;8.00;99.90;;;;;;4902450;29;20186;-85
2020/12/13 06:02:10;;;;;;;10.97;4.33;;;8.10;99.90;;;;;;4904421;29;20257;-85
2020/12/13 06:04:41;;;;;;;10.80;4.63;;;8.00;99.90;;;;;;4902442;29;20276;-86
2020/12/13 06:07:10;;;;;;;11.57;3.73;;;8.00;99.90;;;;;;4903247;29;20182;-86
2020/12/13 06:09:38;;;;;;;11.60;4.03;;;8.00;99.90;;;;;;4903959;29;20187;-82
2020/12/13 06:12:08;;;;;;;10.20;3.93;;;7.90;99.90;;;;;;4902006;29;20175;-81
2020/12/13 06:14:39;;;;;;;11.50;4.00;;;7.80;99.90;;;;;;4901776;29;20309;-81
2020/12/13 06:17:05;;;;;;;10.20;3.60;;;7.80;99.90;;;;;;4900262;29;20178;-80
2020/12/13 06:19:32;;;;;;;11.70;3.70;;;7.80;99.90;;;;;;4905942;29;20238;-81
2020/12/13 06:22:00;;;;;;;11.20;3.67;;;7.70;99.90;;;;;;4919331;29;20219;-81
2020/12/13 06:24:27;;;;;;;12.60;3.70;;;7.80;99.90;;;;;;4919080;29;20256;-84
2020/12/13 06:26:54;;;;;;;12.47;4.10;;;7.60;99.90;;;;;;4920958;29;20147;-81
2020/12/13 06:29:21;;;;;;;9.10;3.97;;;7.60;99.90;;;;;;4921851;29;20166;-82
2020/12/13 06:31:50;;;;;;;9.90;3.67;;;7.60;99.90;;;;;;4922549;29;20162;-81
2020/12/13 06:34:16;;;;;;;10.43;4.37;;;7.60;99.90;;;;;;4919657;29;20198;-84
2020/12/13 06:36:42;;;;;;;7.57;4.03;;;7.60;99.90;;;;;;4918337;29;20193;-86
2020/12/13 06:39:16;;;;;;;10.03;3.83;;;7.50;99.90;;;;;;4902343;29;20199;-86
2020/12/13 06:41:51;;;;;;;8.90;3.67;;;7.50;99.90;;;;;;4899357;29;20205;-80
2020/12/13 06:44:17;;;;;;;13.87;4.37;;;7.50;99.90;;;;;;4901472;29;20154;-88
2020/12/13 06:46:45;;;;;;;10.47;4.07;;;7.50;99.90;;;;;;4901874;29;20289;-88
2020/12/13 06:49:12;;;;;;;14.03;4.53;;;7.50;99.90;;;;;;4904314;29;20181;-87
2020/12/13 06:51:43;;;;;;;8.83;3.80;;;7.50;99.90;;;;;;4903606;29;20205;-85
2020/12/13 06:54:12;;;;;;;8.67;4.53;;;7.50;99.90;;;;;;4904426;29;20236;-85
2020/12/13 06:56:40;;;;;;;12.03;4.30;;;7.40;99.90;;;;;;4905149;29;20174;-87
2020/12/13 06:59:07;;;;;;;13.23;5.00;;;7.40;99.90;;;;;;4904428;29;20242;-88
2020/12/13 07:01:41;;;;;;;9.93;5.03;;;7.50;99.90;;;;;;4905915;29;20195;-85
2020/12/13 07:04:43;;;;;;;11.40;4.60;;;7.50;99.90;;;;;;4921173;29;20222;-81
2020/12/13 07:07:20;;;;;;;11.50;5.87;;;7.40;99.90;;;;;;4910134;29;20183;-80
2020/12/13 07:09:48;;;;;;;11.30;6.47;;;7.40;99.90;;;;;;4912713;29;20189;-80
2020/12/13 07:12:14;;;;;;;13.30;7.37;;;7.50;99.90;;;;;;4911855;29;20178;-80
2020/12/13 07:14:41;;;;;;;15.73;8.60;;;7.50;99.90;;;;;;4910940;29;20210;-81
2020/12/13 07:17:15;;;;;;;15.77;9.47;;;7.50;99.90;;;;;;4909209;29;20181;-80
2020/12/13 07:19:40;;;;;;;17.50;9.57;;;7.50;99.90;;;;;;4908258;29;20183;-86
2020/12/13 07:22:11;;;;;;;21.17;10.27;;;7.50;99.90;;;;;;4900748;29;20201;-87
2020/12/13 07:24:38;;;;;;;15.67;9.43;;;7.50;99.90;;;;;;4901268;29;20174;-87
2020/12/13 07:27:05;;;;;;;21.53;10.07;;;7.50;99.90;;;;;;4899861;29;20198;-79
2020/12/13 07:29:32;;;;;;;20.33;10.10;;;7.40;99.90;;;;;;4901112;29;20166;-80
2020/12/13 07:31:58;;;;;;;16.57;9.93;;;7.40;99.90;;;;;;4898520;29;20206;-81
2020/12/13 07:34:24;;;;;;;20.13;9.73;;;7.30;99.90;;;;;;4898831;29;20210;-81
2020/12/13 07:36:50;;;;;;;16.37;8.77;;;7.30;99.90;;;;;;4898335;29;20190;-81
2020/12/13 07:39:15;;;;;;;14.80;8.97;;;7.40;99.90;;;;;;4898573;29;20285;-88
2020/12/13 07:41:43;;;;;;;17.97;8.93;;;7.60;99.90;;;;;;4901038;29;20170;-86
2020/12/13 08:59:41;;;;;;;12.53;5.43;;;7.30;99.90;;;;;;5511932;23;20315;-84
2020/12/13 09:02:09;;;;;;;11.77;5.63;;;7.40;99.90;;;;;;4922830;29;20182;-89
2020/12/13 09:04:38;;;;;;;14.30;5.53;;;7.50;99.90;;;;;;4922863;29;20202;-85
2020/12/13 09:07:04;;;;;;;9.90;5.83;;;7.50;99.90;;;;;;4922085;29;20177;-84
2020/12/13 09:09:33;;;;;;;11.20;5.93;;;7.50;99.90;;;;;;4926410;29;20182;-85
2020/12/13 09:12:00;;;;;;;9.77;5.33;;;7.40;99.90;;;;;;4927642;29;20207;-84
2020/12/13 09:14:31;;;;;;;13.57;5.47;;;7.50;99.90;;;;;;4928579;29;20243;-85
2020/12/13 09:16:58;;;;;;;12.43;6.20;;;7.40;99.90;;;;;;4926131;29;20229;-84
2020/12/13 09:19:24;;;;;;;10.30;5.40;;;7.30;99.90;;;;;;4927251;29;20174;-83
2020/12/13 09:21:56;;;;;;;12.30;4.97;;;7.20;99.90;;;;;;4929916;29;20178;-89
2020/12/13 09:24:33;;;;;;;10.03;6.27;;;7.20;99.90;;;;;;4934446;29;20178;-85
2020/12/13 09:27:14;;;;;;;13.10;5.87;;;7.30;99.90;;;;;;4937912;29;20162;-83
2020/12/13 09:29:40;;;;;;;15.07;7.37;;;7.20;99.90;;;;;;4937277;29;20189;-83
2020/12/13 09:32:07;;;;;;;10.73;5.90;;;7.20;99.90;;;;;;4935239;29;20189;-83
2020/12/13 09:34:33;;;;;;;11.33;6.10;;;7.30;99.90;;;;;;4938600;29;20201;-83
2020/12/13 09:36:59;;;;;;;14.53;6.13;;;7.40;99.90;;;;;;4938105;29;20684;-87
2020/12/13 09:39:33;;;;;;;14.07;6.20;;;7.30;99.90;;;;;;4936228;29;20267;-83
2020/12/13 09:42:02;;;;;;;14.90;7.10;;;7.30;99.90;;;;;;4935139;29;20214;-83
2020/12/13 09:44:27;;;;;;;12.13;6.67;;;7.40;99.90;;;;;;4938511;29;20174;-84
2020/12/13 09:47:07;;;;;;;15.20;6.50;;;7.50;99.90;;;;;;4939203;29;20204;-85
2020/12/13 09:49:42;;;;;;;10.77;6.37;;;7.50;99.90;;;;;;4934224;29;20185;-85
2020/12/13 09:52:08;;;;;;;18.23;6.33;;;7.60;99.90;;;;;;4933705;29;20189;-85
2020/12/13 09:54:36;;;;;;;13.33;5.47;;;7.60;99.90;;;;;;4924253;29;20209;-84
2020/12/13 09:57:02;;;;;;;11.73;5.60;;;7.60;99.90;;;;;;4924920;29;20182;-87
2020/12/13 09:59:28;;;;;;;12.17;6.03;;;7.60;99.90;;;;;;4914443;29;20692;-84
2020/12/13 10:01:54;;;;;;;10.60;5.60;;;7.80;99.90;;;;;;4905910;29;20179;-85
2020/12/13 10:04:22;;;;;;;13.17;5.90;;;7.80;99.90;;;;;;4908353;29;20283;-84
2020/12/13 10:09:20;;;;;;;10.67;5.67;;;8.00;99.90;;;;;;4911360;29;20181;-84
2020/12/13 10:11:46;;;;;;;14.17;6.37;;;8.00;99.90;;;;;;4909128;29;20573;-86
2020/12/13 10:14:15;;;;;;;14.47;5.83;;;8.00;99.90;;;;;;4902043;29;20677;-83
2020/12/13 10:16:43;;;;;;;11.63;6.60;;;8.00;99.90;;;;;;4902194;29;20638;-84
2020/12/13 10:19:09;;;;;;;13.10;6.53;;;8.00;99.90;;;;;;4902570;29;20268;-87
2020/12/13 10:21:41;;;;;;;12.57;6.43;;;7.90;99.90;;;;;;4902480;29;20186;-85
2020/12/13 10:24:09;;;;;;;10.73;6.20;;;8.00;99.90;;;;;;4902345;29;20186;-85
2020/12/13 10:26:37;;;;;;;13.20;5.90;;;8.10;99.90;;;;;;4901152;29;20182;-84
2020/12/13 10:29:06;;;;;;;15.57;5.60;;;8.20;99.90;;;;;;4904882;29;20214;-85
2020/12/13 10:31:35;;;;;;;11.10;6.07;;;8.20;99.90;;;;;;4904263;29;20175;-86
2020/12/13 10:34:02;;;;;;;11.47;6.20;;;8.30;99.90;;;;;;4903038;29;20182;-86
2020/12/13 10:36:32;;;;;;;13.27;6.07;;;8.30;99.90;;;;;;4905518;29;20281;-85
2020/12/13 10:38:58;;;;;;;15.70;6.03;;;8.30;99.90;;;;;;4919407;29;20206;-85
2020/12/13 10:41:24;;;;;;;11.63;5.40;;;8.30;99.90;;;;;;4921810;29;20178;-85
2020/12/13 10:43:51;;;;;;;12.63;5.07;;;8.40;99.90;;;;;;4920310;29;20661;-89
2020/12/13 10:46:19;;;;;;;10.10;5.33;;;8.40;99.90;;;;;;4922896;29;20167;-89
2020/12/13 10:48:45;;;;;;;12.33;4.80;;;8.40;99.90;;;;;;4923447;29;20198;-85
2020/12/13 10:51:12;;;;;;;14.87;5.30;;;8.40;99.90;;;;;;4922025;29;20170;-90
2020/12/13 10:53:38;;;;;;;11.30;4.80;;;8.40;99.90;;;;;;4920778;29;20192;-85
2020/12/13 10:56:04;;;;;;;13.23;4.80;;;8.30;99.90;;;;;;4919714;29;20246;-86
2020/12/13 10:58:30;;;;;;;9.57;4.23;;;8.30;99.90;;;;;;4916581;29;20189;-82
2020/12/13 11:00:57;;;;;;;10.83;4.93;;;8.30;99.90;;;;;;4916837;29;20205;-87
2020/12/13 11:03:23;;;;;;;11.20;4.80;;;8.30;99.90;;;;;;4903763;29;20183;-86
2020/12/13 11:05:50;;;;;;;11.67;4.90;;;8.30;99.90;;;;;;4913321;29;20259;-85
2020/12/13 11:08:16;;;;;;;10.67;5.07;;;8.40;99.90;;;;;;4914065;29;20193;-86
2020/12/13 11:10:46;;;;;;;10.23;4.33;;;8.80;99.90;;;;;;4913719;29;20273;-84
2020/12/13 11:13:13;;;;;;;10.00;4.47;;;8.90;99.90;;;;;;4912694;29;20658;-85
2020/12/13 11:15:41;;;;;;;11.17;4.73;;;8.90;99.90;;;;;;4912660;29;20205;-84
2020/12/13 11:18:09;;;;;;;11.33;5.67;;;8.90;99.90;;;;;;4914257;29;20205;-85
2020/12/13 11:20:35;;;;;;;15.90;5.17;;;9.00;99.90;;;;;;4914639;29;20178;-87
2020/12/13 11:23:02;;;;;;;8.13;5.10;;;9.00;99.90;;;;;;4908268;29;20201;-87
2020/12/13 11:25:28;;;;;;;10.60;4.73;;;9.10;99.90;;;;;;4915491;29;20178;-87
2020/12/13 11:27:53;;;;;;;11.83;5.33;;;9.00;99.90;;;;;;4919826;29;20218;-86
2020/12/13 11:30:20;;;;;;;12.23;5.43;;;9.10;99.90;;;;;;4920517;29;20166;-87
2020/12/13 11:32:46;;;;;;;11.27;5.03;;;8.90;99.90;;;;;;4918101;29;20306;-90
2020/12/13 11:35:13;;;;;;;11.00;5.47;;;8.90;99.90;;;;;;4900853;29;20222;-89
2020/12/13 11:37:40;;;;;;;8.97;5.07;;;8.90;99.90;;;;;;4906503;29;20242;-89
2020/12/13 11:40:06;;;;;;;12.33;4.60;;;9.00;99.90;;;;;;4908381;29;20668;-83
2020/12/13 11:42:32;;;;;;;8.77;4.20;;;9.00;99.90;;;;;;4913352;29;20182;-83
2020/12/13 11:44:58;;;;;;;9.83;4.77;;;9.00;99.90;;;;;;4911738;29;20615;-84
2020/12/13 11:47:25;;;;;;;9.70;4.60;;;9.00;99.90;;;;;;4889012;29;20186;-87
2020/12/13 11:49:52;;;;;;;12.77;5.07;;;8.90;99.90;;;;;;4906600;29;20238;-86
2020/12/13 11:52:18;;;;;;;14.10;5.10;;;8.90;99.90;;;;;;4913274;29;20182;-85
2020/12/13 11:54:44;;;;;;;9.77;4.93;;;9.00;99.90;;;;;;4913507;29;20221;-82
2020/12/13 11:57:11;;;;;;;10.40;4.47;;;9.00;99.90;;;;;;4916655;29;20530;-84
2020/12/13 11:59:36;;;;;;;8.33;4.83;;;9.00;99.90;;;;;;4904924;29;20253;-85
2020/12/13 12:02:02;;;;;;;11.00;4.30;;;9.20;99.90;;;;;;4904252;29;20174;-86
2020/12/13 12:04:28;;;;;;;13.57;4.97;;;9.20;99.90;;;;;;4908368;29;20198;-85
2020/12/13 12:06:55;;;;;;;10.60;5.10;;;9.20;99.90;;;;;;4907042;29;20182;-84
2020/12/13 12:09:22;;;;;;;7.10;3.83;;;9.10;99.90;;;;;;4906959;29;20170;-89
2020/12/13 12:11:49;;;;;;;8.83;4.00;;;9.10;99.90;;;;;;4908766;29;20226;-90
2020/12/13 12:14:16;;;;;;;9.97;4.57;;;9.20;99.90;;;;;;4913023;29;20225;-87
2020/12/13 12:16:43;;;;;;;7.93;4.17;;;9.20;99.90;;;;;;4917468;29;20174;-85
2020/12/13 12:19:12;;;;;;;8.47;4.13;;;9.00;99.90;;;;;;4913462;29;20251;-89
2020/12/13 12:21:47;;;;;;;8.63;4.20;;;9.20;99.90;;;;;;4918614;29;20178;-84
2020/12/13 12:24:17;;;;;;;9.23;4.37;;;9.20;99.90;;;;;;4921681;29;20185;-86
2020/12/13 12:26:43;;;;;;;8.60;4.10;;;9.20;99.90;;;;;;4916894;29;20170;-84
2020/12/13 12:29:09;;;;;;;9.33;4.40;;;9.00;99.90;;;;;;4910942;29;20189;-85
2020/12/13 12:31:36;;;;;;;8.00;4.73;;;9.00;99.90;;;;;;4911778;29;20647;-85
2020/12/13 12:34:03;;;;;;;6.70;4.00;;;9.10;99.90;;;;;;4909742;29;20178;-87
2020/12/13 12:36:29;;;;;;;10.23;4.73;;;9.00;99.90;;;;;;4906143;29;20186;-84
2020/12/13 12:38:55;;;;;;;10.77;4.20;;;9.20;99.90;;;;;;4902799;29;20238;-84
2020/12/13 12:41:22;;;;;;;7.43;3.90;;;9.10;99.90;;;;;;4901636;29;20555;-86
2020/12/13 12:43:50;;;;;;;8.47;4.33;;;9.00;99.90;;;;;;4902422;29;20178;-85
2020/12/13 12:46:17;;;;;;;8.83;4.63;;;9.00;99.90;;;;;;4902393;29;20185;-86
2020/12/13 12:48:49;;;;;;;10.47;4.33;;;9.10;99.90;;;;;;4900899;29;20193;-89
2020/12/13 12:51:19;;;;;;;10.47;3.77;;;9.10;99.90;;;;;;4917182;29;20182;-84
2020/12/13 12:53:47;;;;;;;8.27;3.60;;;9.30;99.90;;;;;;4920051;29;20253;-85
2020/12/13 12:56:14;;;;;;;12.40;3.90;;;9.20;99.90;;;;;;4905600;29;20234;-85
2020/12/13 12:58:47;;;;;;;12.13;4.20;;;9.10;99.90;;;;;;4909199;29;20174;-85
2020/12/13 13:01:16;;;;;;;7.63;3.60;;;9.10;99.90;;;;;;4907983;29;20190;-85
2020/12/13 13:03:42;;;;;;;9.17;4.03;;;9.20;99.90;;;;;;4907851;29;20217;-84
2020/12/13 13:06:25;;;;;;;8.97;3.40;;;9.20;99.90;;;;;;4907705;29;20197;-84
2020/12/13 13:09:02;;;;;;;9.53;3.40;;;9.20;99.90;;;;;;4905941;29;20174;-87
2020/12/13 13:11:38;;;;;;;8.63;4.00;;;9.00;99.90;;;;;;4908062;29;20182;-86
2020/12/13 13:14:05;;;;;;;8.60;4.23;;;9.10;99.90;;;;;;4913806;29;20273;-85
2020/12/13 13:16:31;;;;;;;8.13;4.37;;;9.10;99.90;;;;;;4911897;29;20178;-88
2020/12/13 13:19:01;;;;;;;9.97;3.93;;;9.20;99.90;;;;;;4906250;29;20633;-86
2020/12/13 13:21:34;;;;;;;8.37;4.10;;;9.20;99.90;;;;;;4905475;29;20174;-86
2020/12/13 13:23:59;;;;;;;8.53;3.87;;;9.10;99.90;;;;;;4907287;29;20605;-85
2020/12/13 13:26:26;;;;;;;6.77;3.60;;;9.00;99.90;;;;;;4915113;29;20237;-83
2020/12/13 13:28:51;;;;;;;7.30;3.87;;;8.90;99.90;;;;;;4910481;29;20178;-88
2020/12/13 13:31:17;;;;;;;8.37;4.00;;;8.90;99.90;;;;;;4924427;29;20189;-84
2020/12/13 13:33:43;;;;;;;8.77;4.07;;;8.70;99.90;;;;;;4924867;29;20173;-88
2020/12/13 13:36:19;;;;;;;9.80;4.37;;;8.80;99.90;;;;;;4919901;29;20217;-84
2020/12/13 13:38:46;;;;;;;11.87;4.30;;;8.70;99.90;;;;;;4908703;29;20182;-87
2020/12/13 13:41:38;;;;;;;8.67;4.33;;;8.70;99.90;;;;;;4910214;29;20198;-85
2020/12/13 13:44:11;;;;;;;9.37;4.33;;;8.60;99.90;;;;;;4907328;29;20665;-86
2020/12/13 13:46:46;;;;;;;8.73;4.13;;;8.60;99.90;;;;;;4953229;23;20174;-82
2020/12/13 13:51:52;;;;;;;10.60;5.23;;;8.60;99.90;;;;;;4946439;28;20181;-84
2020/12/13 13:54:20;;;;;;;8.40;4.33;;;8.60;99.90;;;;;;4944613;29;20196;-82
2020/12/13 13:59:30;;;;;;;9.57;5.20;;;8.60;99.90;;;;;;4937988;29;20189;-80
2020/12/13 14:01:56;;;;;;;9.13;4.57;;;8.50;99.90;;;;;;4935520;29;20170;-83
2020/12/13 14:04:23;;;;;;;10.53;4.77;;;8.40;99.90;;;;;;4930859;29;20181;-85
2020/12/13 14:09:17;;;;;;;14.30;5.87;;;8.40;99.90;;;;;;4937381;29;20181;-81
2020/12/13 14:11:43;;;;;;;9.30;5.20;;;8.40;99.90;;;;;;4938253;29;20170;-85
2020/12/13 14:14:08;;;;;;;12.27;5.57;;;8.40;99.90;;;;;;4939308;29;20170;-85
2020/12/13 14:16:34;;;;;;;7.87;4.80;;;8.50;99.90;;;;;;4935661;29;20212;-83
2020/12/13 14:19:00;;;;;;;11.77;5.30;;;8.40;99.90;;;;;;4931706;29;20656;-82
2020/12/13 14:21:25;;;;;;;11.57;5.53;;;8.40;99.90;;;;;;4924377;29;20178;-84